Glidden, Wisconsin
Current Conditions -  °F | °C
As of 10:35 AM on Sunday 21 Dec 2014 (Local Time) from KPBH Reporting Station
Haze Haze  
Wind Chill: 21°   Ceiling: 700
Heat Index: 30°   Visibility: 2.5mi
Dew Point: 28°   Wind: 10mph
Humidity: 95%   Direction: 150°SSE
Pressure: 29.95"   Gusts: 17mph
Location:  46.13°N, 90.58°W
Report Text: KPBH 211635Z AUTO 15009G15KT 2 1/2SM BR OVC007 M01/M02 A2995 RMK AO2 T10131020
Loading
Personal Weather Stations






























Interactive Weather Map New forecast layout! Learn more

10-Day Weather Forecast

Advertisements
Track Severe Weather on mobile